createdAt,value
2023-01-17T00:00:46.075Z,96944.80
2023-01-17T00:06:17.062Z,96936.98
2023-01-17T00:11:19.996Z,96940.64
2023-01-17T00:16:22.961Z,96934.49
2023-01-17T00:21:44.413Z,96929.65
2023-01-17T00:27:06.015Z,96919.11
2023-01-17T00:32:08.855Z,96911.95
2023-01-17T00:37:11.708Z,96917.27
2023-01-17T00:42:14.556Z,96913.02
2023-01-17T00:47:36.002Z,96917.46
2023-01-17T00:52:57.580Z,96921.70
2023-01-17T00:58:25.693Z,96922.65
2023-01-17T01:03:47.106Z,96918.73
2023-01-17T01:09:08.653Z,96903.59
2023-01-17T01:14:30.407Z,96894.73
2023-01-17T01:19:52.248Z,96888.42
2023-01-17T01:25:13.808Z,96874.23
2023-01-17T01:30:35.428Z,96867.20
2023-01-17T01:35:38.374Z,96869.66
2023-01-17T01:40:51.709Z,96863.66
2023-01-17T01:45:58.286Z,96859.26
2023-01-17T01:51:06.332Z,96852.55
2023-01-17T01:56:13.769Z,96846.97
2023-01-17T02:01:18.163Z,96845.55
2023-01-17T02:06:34.170Z,96842.96
2023-01-17T02:11:40.123Z,96838.21
2023-01-17T02:18:12.707Z,96832.02
2023-01-17T02:23:37.084Z,96821.09
2023-01-17T02:28:42.775Z,96822.20
2023-01-17T02:34:04.721Z,96826.73
2023-01-17T02:39:27.786Z,96827.69
2023-01-17T02:44:39.615Z,96826.45
2023-01-17T02:49:42.659Z,96826.55
2023-01-17T02:55:06.899Z,96826.51
2023-01-17T03:00:36.040Z,96831.30
2023-01-17T03:05:56.270Z,96826.06
2023-01-17T03:10:59.477Z,96825.56
2023-01-17T03:16:08.547Z,96827.41
2023-01-17T03:21:11.569Z,96822.83
2023-01-17T03:26:14.540Z,96821.59
2023-01-17T03:31:20.015Z,96815.56
2023-01-17T03:36:22.994Z,96819.92
2023-01-17T03:41:25.976Z,96819.50
2023-01-17T03:46:28.943Z,96818.96
2023-01-17T03:51:31.954Z,96818.21
2023-01-17T03:56:34.873Z,96815.03
2023-01-17T04:01:37.961Z,96813.45
2023-01-17T04:06:41.775Z,96819.02
2023-01-17T04:11:44.762Z,96824.71
2023-01-17T04:16:47.766Z,96823.33
2023-01-17T04:21:50.728Z,96823.61
2023-01-17T04:26:53.660Z,96822.05
2023-01-17T04:31:56.768Z,96828.20
2023-01-17T04:36:59.719Z,96828.89
2023-01-17T04:42:02.990Z,96832.45
2023-01-17T04:47:05.928Z,96841.67
2023-01-17T04:52:08.847Z,96841.16
2023-01-17T04:57:11.783Z,96849.47
2023-01-17T05:02:15.022Z,96854.27
2023-01-17T05:07:17.989Z,96858.81
2023-01-17T05:12:21.084Z,96864.10
2023-01-17T05:17:24.209Z,96865.24
2023-01-17T05:22:27.187Z,96879.52
2023-01-17T05:27:30.108Z,96875.83
2023-01-17T05:32:33.048Z,96874.02
2023-01-17T05:37:35.970Z,96872.92
2023-01-17T05:42:38.911Z,96873.83
2023-01-17T05:47:41.813Z,96873.99
2023-01-17T05:52:58.089Z,96879.23
2023-01-17T05:58:01.969Z,96885.27
2023-01-17T06:03:04.829Z,96884.80
2023-01-17T06:08:08.560Z,96892.61
2023-01-17T06:13:15.292Z,96901.15
2023-01-17T06:18:18.503Z,96900.38
2023-01-17T06:23:22.286Z,96901.65
2023-01-17T06:28:25.236Z,96904.02
2023-01-17T06:33:28.257Z,96919.13
2023-01-17T06:38:31.562Z,96925.54
2023-01-17T06:43:35.072Z,96927.17
2023-01-17T06:48:38.025Z,96932.75
2023-01-17T06:53:41.474Z,96937.01
2023-01-17T06:58:44.404Z,96931.58
2023-01-17T07:03:47.382Z,96921.50
2023-01-17T07:08:50.533Z,96921.81
2023-01-17T07:13:53.821Z,96921.42
2023-01-17T07:18:58.194Z,96933.77
2023-01-17T07:24:01.140Z,96937.92
2023-01-17T07:29:05.376Z,96949.77
2023-01-17T07:34:08.337Z,96956.91
2023-01-17T07:39:11.594Z,96957.50
2023-01-17T07:44:14.724Z,96954.21
2023-01-17T07:49:17.635Z,96946.70
2023-01-17T07:54:20.562Z,96947.45
2023-01-17T07:59:23.562Z,96939.31
2023-01-17T08:04:27.620Z,96925.97
2023-01-17T08:09:33.522Z,96918.84
2023-01-17T08:14:36.787Z,96904.21
2023-01-17T08:19:39.749Z,96897.80
2023-01-17T08:24:43.246Z,96909.48
2023-01-17T08:29:48.417Z,96913.96
2023-01-17T08:34:51.398Z,96923.63
2023-01-17T08:39:54.343Z,96924.23
2023-01-17T08:44:57.396Z,96933.73
2023-01-17T08:50:01.121Z,96944.26
2023-01-17T08:55:06.030Z,96956.29
2023-01-17T09:00:11.912Z,96960.02
2023-01-17T09:05:15.171Z,96963.61
2023-01-17T09:10:18.169Z,96963.64
2023-01-17T09:15:21.104Z,96957.31
2023-01-17T09:20:25.301Z,96963.30
2023-01-17T09:25:28.264Z,96964.34
2023-01-17T09:30:31.281Z,96974.75
2023-01-17T09:35:34.636Z,96978.14
2023-01-17T09:40:44.484Z,96969.70
2023-01-17T09:45:47.593Z,96967.06
2023-01-17T09:51:00.509Z,96975.23
2023-01-17T09:56:19.867Z,96975.50
2023-01-17T10:01:37.367Z,96978.80
2023-01-17T10:06:58.478Z,96988.52
2023-01-17T10:12:36.553Z,96986.67
2023-01-17T10:18:00.434Z,96988.44
2023-01-17T10:24:06.650Z,96998.84
2023-01-17T10:29:20.093Z,97011.11
2023-01-17T10:34:34.381Z,97012.12
2023-01-17T10:39:38.180Z,97015.55
2023-01-17T10:44:46.301Z,97024.63
2023-01-17T10:49:53.862Z,97024.92
2023-01-17T10:55:21.226Z,97022.55
2023-01-17T11:01:00.435Z,97023.96
2023-01-17T11:06:20.079Z,97028.63
2023-01-17T11:11:35.743Z,97026.67
2023-01-17T11:16:39.580Z,97024.11
2023-01-17T11:21:58.662Z,97018.33
2023-01-17T11:27:03.905Z,97021.12
2023-01-17T11:32:33.250Z,97019.11
2023-01-17T11:37:36.923Z,97019.64
2023-01-17T11:42:39.856Z,97017.97
2023-01-17T11:47:42.849Z,97008.08
2023-01-17T11:52:45.892Z,96989.09
2023-01-17T11:57:51.294Z,96981.59
2023-01-17T12:03:06.306Z,96980.20
2023-01-17T12:08:32.148Z,96975.89
2023-01-17T12:14:00.885Z,96965.04
2023-01-17T12:19:03.819Z,96971.95
2023-01-17T12:24:49.749Z,96967.20
2023-01-17T12:30:22.056Z,96977.33
2023-01-17T12:35:38.824Z,96974.83
2023-01-17T12:40:54.357Z,96970.60
2023-01-17T12:46:01.103Z,96980.01
2023-01-17T12:51:18.772Z,96990.95
2023-01-17T12:56:52.918Z,96997.13
2023-01-17T13:01:58.984Z,97002.45
2023-01-17T13:07:23.147Z,97013.29
2023-01-17T13:12:32.864Z,97008.27
2023-01-17T13:17:38.691Z,97005.07
2023-01-17T13:22:43.454Z,96994.71
2023-01-17T13:28:22.788Z,96993.51
2023-01-17T13:33:28.106Z,96988.00
2023-01-17T13:38:55.998Z,96988.20
2023-01-17T13:44:19.694Z,96979.61
2023-01-17T13:49:34.935Z,96992.58
2023-01-17T13:55:03.406Z,97002.02
2023-01-17T14:00:21.430Z,97014.77
2023-01-17T14:05:30.500Z,97031.14
2023-01-17T14:10:47.290Z,97040.61
2023-01-17T14:15:51.491Z,97038.64
2023-01-17T14:21:24.494Z,97042.23
2023-01-17T14:26:54.753Z,97052.47
2023-01-17T14:32:09.181Z,97061.17
2023-01-17T14:37:22.151Z,97071.15
2023-01-17T14:42:28.265Z,97082.79
2023-01-17T14:47:36.204Z,97107.09
2023-01-17T14:52:39.157Z,97113.59
2023-01-17T14:57:42.987Z,97111.86
2023-01-17T15:02:48.331Z,97106.55
2023-01-17T15:07:54.940Z,97118.97
2023-01-17T15:13:07.847Z,97128.27
2023-01-17T15:18:13.775Z,97145.45
2023-01-17T15:23:23.100Z,97147.92
2023-01-17T15:28:26.477Z,97164.86
2023-01-17T15:33:32.430Z,97169.92
2023-01-17T15:38:47.610Z,97184.55
2023-01-17T15:43:51.465Z,97204.21
2023-01-17T15:48:54.506Z,97210.91
2023-01-17T15:53:57.647Z,97214.08
2023-01-17T15:59:45.577Z,97220.76
2023-01-17T16:04:48.558Z,97229.77
2023-01-17T16:09:51.508Z,97231.88
2023-01-17T16:15:11.105Z,97235.95
2023-01-17T16:20:34.310Z,97246.27
2023-01-17T16:25:37.790Z,97246.05
2023-01-17T16:30:40.792Z,97247.31
2023-01-17T16:35:43.778Z,97244.02
2023-01-17T16:40:47.472Z,97240.50
2023-01-17T16:45:54.044Z,97230.95
2023-01-17T16:50:57.168Z,97235.27
2023-01-17T16:56:10.229Z,97231.38
2023-01-17T17:01:16.648Z,97229.11
2023-01-17T17:06:19.739Z,97228.44
2023-01-17T17:11:23.952Z,97234.81
2023-01-17T17:16:32.990Z,97231.85
2023-01-17T17:21:37.640Z,97219.40
2023-01-17T17:26:41.227Z,97217.00
2023-01-17T17:31:44.312Z,97219.17
2023-01-17T17:36:47.276Z,97222.74
2023-01-17T17:41:50.251Z,97224.14
2023-01-17T17:46:53.514Z,97233.08
2023-01-17T17:52:04.639Z,97224.10
2023-01-17T17:57:07.756Z,97209.77
2023-01-17T18:02:11.530Z,97203.48
2023-01-17T18:07:15.008Z,97203.73
2023-01-17T18:12:17.996Z,97196.17
2023-01-17T18:17:21.018Z,97195.90
2023-01-17T18:22:24.443Z,97198.17
2023-01-17T18:27:27.467Z,97206.98
2023-01-17T18:32:30.431Z,97205.39
2023-01-17T18:37:34.098Z,97215.54
2023-01-17T18:42:37.033Z,97218.66
2023-01-17T18:47:39.978Z,97217.42
2023-01-17T18:52:42.938Z,97214.90
2023-01-17T18:57:45.875Z,97242.27
2023-01-17T19:02:49.073Z,97259.95
2023-01-17T19:07:52.315Z,97266.90
2023-01-17T19:12:55.384Z,97278.67
2023-01-17T19:17:58.320Z,97291.91
2023-01-17T19:23:01.620Z,97300.93
2023-01-17T19:28:04.684Z,97310.33
2023-01-17T19:33:07.732Z,97313.73
2023-01-17T19:38:10.656Z,97317.15
2023-01-17T19:43:13.559Z,97311.14
2023-01-17T19:48:16.992Z,97307.77
2023-01-17T19:53:20.051Z,97318.89
2023-01-17T19:58:22.959Z,97319.11
2023-01-17T20:03:25.881Z,97316.23
2023-01-17T20:08:28.832Z,97319.20
2023-01-17T20:13:32.452Z,97323.60
2023-01-17T20:18:36.263Z,97327.75
2023-01-17T20:23:43.141Z,97322.55
2023-01-17T20:28:48.974Z,97322.31
2023-01-17T20:33:54.826Z,97325.83
2023-01-17T20:38:57.793Z,97322.83
2023-01-17T20:44:02.639Z,97333.93
2023-01-17T20:49:07.660Z,97333.17
2023-01-17T20:54:14.697Z,97326.48
2023-01-17T20:59:22.429Z,97306.25
2023-01-17T21:04:26.204Z,97300.74
2023-01-17T21:09:29.175Z,97282.85
2023-01-17T21:14:32.155Z,97276.27
2023-01-17T21:19:37.026Z,97265.44
2023-01-17T21:24:39.958Z,97265.09
2023-01-17T21:29:42.924Z,97264.02
2023-01-17T21:34:46.121Z,97264.40
2023-01-17T21:39:54.781Z,97273.02
2023-01-17T21:44:57.766Z,97264.17
2023-01-17T21:50:00.710Z,97265.02
2023-01-17T21:55:22.483Z,97265.63
2023-01-17T22:00:25.588Z,97270.95
2023-01-17T22:05:28.552Z,97271.14
2023-01-17T22:10:31.638Z,97278.23
2023-01-17T22:15:36.573Z,97280.14
2023-01-17T22:20:41.440Z,97273.57
2023-01-17T22:25:44.373Z,97267.48
2023-01-17T22:30:47.313Z,97264.76
2023-01-17T22:36:00.241Z,97271.14
2023-01-17T22:41:09.577Z,97273.77
2023-01-17T22:46:16.427Z,97268.34
2023-01-17T22:51:21.279Z,97251.08
2023-01-17T22:56:30.822Z,97261.40
2023-01-17T23:01:33.914Z,97256.16
2023-01-17T23:06:39.804Z,97257.36
2023-01-17T23:11:50.975Z,97260.69
2023-01-17T23:17:21.603Z,97268.77
2023-01-17T23:22:27.967Z,97261.83
2023-01-17T23:27:56.991Z,97247.14
2023-01-17T23:33:02.814Z,97237.67
2023-01-17T23:38:24.981Z,97232.30
2023-01-17T23:43:28.375Z,97222.01
2023-01-17T23:48:31.893Z,97219.88
2023-01-17T23:53:37.330Z,97222.64
2023-01-17T23:58:40.473Z,97211.70
